Time;durP1;ratioP1;P1;durP2;ratioP2;P2;SDS_P1;SDS_P2;PMS_P1;PMS_P2;Temp;Humidity;BMP_temperature;BMP_pressure;BME280_temperature;BME280_humidity;BME280_pressure;Samples;Min_cycle;Max_cycle;Signal;HPM_P1;HPM_P2
2023/06/14 00:01:02;;;;;;;;;;;;;;;19.98;100.00;99101.13;4953251;28;19918;-77
2023/06/14 00:03:28;;;;;;;;;;;;;;;19.96;100.00;99093.34;4952802;28;19922;-78
2023/06/14 00:05:54;;;;;;;;;;;;;;;19.96;100.00;99087.97;4953222;28;19918;-76
2023/06/14 00:08:21;;;;;;;;;;;;;;;19.95;100.00;99083.66;4952926;28;19918;-76
2023/06/14 00:10:46;;;;;;;;;;;;;;;19.97;100.00;99092.28;4953494;28;20354;-76
2023/06/14 00:13:12;;;;;;;;;;;;;;;20.00;100.00;99089.19;4967780;28;19946;-76
2023/06/14 00:15:37;;;;;;;;;;;;;;;20.00;100.00;99091.88;4953181;28;19932;-77
2023/06/14 00:18:03;;;;;;;;;;;;;;;20.00;100.00;99089.19;4954047;28;19942;-77
2023/06/14 00:20:30;;;;;;;;;;;;;;;20.03;100.00;99082.56;4952526;28;19922;-76
2023/06/14 00:22:56;;;;;;;;;;;;;;;20.04;100.00;99089.56;4953207;28;20017;-76
2023/06/14 00:25:27;;;;;;;;;;;;;;;20.03;100.00;99083.38;4952969;28;20001;-77
2023/06/14 00:27:53;;;;;;;;;;;;;;;20.04;100.00;99079.69;4952103;28;19925;-76
2023/06/14 00:30:19;;;;;;;;;;;;;;;20.02;100.00;99076.41;4952611;28;19954;-76
2023/06/14 00:32:45;;;;;;;;;;;;;;;20.04;100.00;99078.84;4952800;28;19965;-75
2023/06/14 00:35:11;;;;;;;;;;;;;;;20.04;100.00;99074.31;4952418;28;19925;-77
2023/06/14 00:37:37;;;;;;;;;;;;;;;20.03;100.00;99069.16;4953057;28;20009;-75
2023/06/14 00:40:04;;;;;;;;;;;;;;;20.03;100.00;99067.31;4967953;28;19918;-76
2023/06/14 00:42:29;;;;;;;;;;;;;;;20.05;100.00;99075.13;4952960;28;19918;-76
2023/06/14 00:44:55;;;;;;;;;;;;;;;20.06;100.00;99073.28;4967168;28;19997;-75
2023/06/14 00:47:20;;;;;;;;;;;;;;;20.04;100.00;99068.97;4954475;28;19945;-76
2023/06/14 00:49:50;;;;;;;;;;;;;;;20.06;100.00;99067.94;4956337;28;19915;-76
2023/06/14 00:52:17;;;;;;;;;;;;;;;20.07;100.00;99072.25;4956033;28;20290;-75
2023/06/14 00:54:43;;;;;;;;;;;;;;;20.06;100.00;99071.44;4956618;28;20298;-76
2023/06/14 00:57:10;;;;;;;;;;;;;;;20.07;100.00;99064.22;4956537;28;19918;-75
2023/06/14 00:59:43;;;;;;;;;;;;;;;20.02;100.00;99071.06;4953783;28;19922;-75
2023/06/14 01:02:08;;;;;;;;;;;;;;;20.01;100.00;99069.41;4950390;28;20310;-77
2023/06/14 01:04:36;;;;;;;;;;;;;;;20.01;100.00;99074.75;4958661;28;20005;-76
2023/06/14 01:07:13;;;;;;;;;;;;;;;20.02;100.00;99065.69;4960320;28;19918;-75
2023/06/14 01:09:58;;;;;;;;;;;;;;;20.01;100.00;99064.06;4958263;28;19914;-75
2023/06/14 01:12:39;;;;;;;;;;;;;;;19.99;100.00;99055.41;4961337;28;19918;-76
2023/06/14 01:15:07;;;;;;;;;;;;;;;19.98;100.00;99052.94;4960477;28;19919;-75
2023/06/14 01:17:34;;;;;;;;;;;;;;;19.95;100.00;99054.19;4962791;28;20777;-76
2023/06/14 01:20:01;;;;;;;;;;;;;;;19.98;100.00;99056.44;4977705;28;19914;-76
2023/06/14 01:22:27;;;;;;;;;;;;;;;19.97;100.00;99062.81;4960822;28;19930;-76
2023/06/14 01:24:57;;;;;;;;;;;;;;;19.95;100.00;99054.19;4976045;28;20362;-77
2023/06/14 01:27:23;;;;;;;;;;;;;;;19.94;100.00;99057.09;4960146;28;19925;-76
2023/06/14 01:29:56;;;;;;;;;;;;;;;19.93;100.00;99061.63;4975935;28;19978;-77
2023/06/14 01:32:26;;;;;;;;;;;;;;;19.93;100.00;99056.25;4975904;28;19919;-76
2023/06/14 01:34:52;;;;;;;;;;;;;;;19.91;100.00;99052.97;4960034;28;19929;-77
2023/06/14 01:37:19;;;;;;;;;;;;;;;19.93;100.00;99061.63;4959551;28;20334;-76
2023/06/14 01:39:45;;;;;;;;;;;;;;;19.96;100.00;99055.84;4960311;28;20275;-76
2023/06/14 01:42:12;;;;;;;;;;;;;;;19.95;100.00;99048.84;4959850;28;19919;-75
2023/06/14 01:44:41;;;;;;;;;;;;;;;19.94;100.00;99049.88;4975363;28;19918;-76
2023/06/14 01:47:07;;;;;;;;;;;;;;;19.96;100.00;99050.50;4959795;28;19918;-75
2023/06/14 01:49:34;;;;;;;;;;;;;;;19.95;100.00;99040.81;4955563;28;19922;-76
2023/06/14 01:52:00;;;;;;;;;;;;;;;19.94;100.00;99041.84;4973972;28;19925;-76
2023/06/14 01:54:25;;;;;;;;;;;;;;;19.94;100.00;99028.44;4961933;28;19923;-76
2023/06/14 01:56:51;;;;;;;;;;;;;;;19.93;100.00;99026.81;4959642;28;19953;-77
2023/06/14 01:59:16;;;;;;;;;;;;;;;19.94;100.00;99033.81;4974182;28;19919;-77
2023/06/14 02:01:42;;;;;;;;;;;;;;;19.97;100.00;99033.34;4960239;28;20005;-76
2023/06/14 02:04:08;;;;;;;;;;;;;;;19.96;100.00;99037.09;4975267;28;19926;-77
2023/06/14 02:06:34;;;;;;;;;;;;;;;19.96;100.00;99037.09;4958345;28;20343;-76
2023/06/14 02:09:00;;;;;;;;;;;;;;;19.92;100.00;99033.19;4973270;28;19919;-77
2023/06/14 02:11:27;;;;;;;;;;;;;;;19.81;100.00;99033.88;4970462;28;20388;-76
2023/06/14 02:13:53;;;;;;;;;;;;;;;19.79;100.00;99033.25;4955425;28;20021;-74
2023/06/14 02:16:18;;;;;;;;;;;;;;;19.78;100.00;99026.28;4955316;28;19919;-75
2023/06/14 02:18:44;;;;;;;;;;;;;;;19.71;100.00;99030.84;4958759;28;19918;-75
2023/06/14 02:21:09;;;;;;;;;;;;;;;19.68;100.00;99025.91;4955139;28;19997;-77
2023/06/14 02:23:35;;;;;;;;;;;;;;;19.60;100.00;99028.84;4954886;28;19965;-77
2023/06/14 02:26:00;;;;;;;;;;;;;;;19.56;100.00;99023.09;4970343;28;19926;-75
2023/06/14 02:28:26;;;;;;;;;;;;;;;19.58;100.00;99025.56;4955426;28;19918;-75
2023/06/14 02:30:52;;;;;;;;;;;;;;;19.60;100.00;99031.53;4955304;28;20380;-75
2023/06/14 02:33:22;;;;;;;;;;;;;;;19.61;100.00;99025.94;4955155;28;20007;-74
2023/06/14 02:35:47;;;;;;;;;;;;;;;19.62;100.00;99029.44;4955397;28;20024;-76
2023/06/14 02:38:13;;;;;;;;;;;;;;;19.58;100.00;99025.56;4954427;28;19914;-77
2023/06/14 02:40:42;;;;;;;;;;;;;;;19.59;100.00;99027.19;4955197;28;20352;-76
2023/06/14 02:43:07;;;;;;;;;;;;;;;19.56;100.00;99027.63;4955430;28;20334;-76
2023/06/14 02:45:33;;;;;;;;;;;;;;;19.56;100.00;99032.97;4955376;28;19926;-76
2023/06/14 02:47:58;;;;;;;;;;;;;;;19.54;100.00;99027.03;4955504;28;19918;-76
2023/06/14 02:50:24;;;;;;;;;;;;;;;19.56;100.00;99027.63;4955094;28;19914;-76
2023/06/14 02:52:49;;;;;;;;;;;;;;;19.49;100.00;99032.19;4955330;28;19965;-76
2023/06/14 02:55:15;;;;;;;;;;;;;;;19.49;100.00;99027.66;4969360;28;20036;-75
2023/06/14 02:57:40;;;;;;;;;;;;;;;19.38;100.00;99025.59;4955228;28;19914;-75
2023/06/14 03:00:10;;;;;;;;;;;;;;;19.34;100.00;99019.03;4953843;28;20287;-75
2023/06/14 03:02:36;;;;;;;;;;;;;;;19.37;100.00;99023.16;4970188;28;19921;-75
2023/06/14 03:05:02;;;;;;;;;;;;;;;19.40;100.00;99039.59;4969387;28;19919;-74
2023/06/14 03:07:29;;;;;;;;;;;;;;;19.43;100.00;99027.66;4969896;28;19961;-74
2023/06/14 03:09:56;;;;;;;;;;;;;;;19.43;100.00;99033.00;4969323;28;20000;-74
2023/06/14 03:12:21;;;;;;;;;;;;;;;19.42;100.00;99026.00;4954674;28;20025;-74
2023/06/14 03:14:47;;;;;;;;;;;;;;;19.40;100.00;99025.41;4954977;28;19929;-76
2023/06/14 03:17:15;;;;;;;;;;;;;;;19.41;100.00;99032.41;4954150;28;20008;-74
2023/06/14 03:19:41;;;;;;;;;;;;;;;19.41;100.00;99040.41;4955227;28;20020;-76
2023/06/14 03:22:07;;;;;;;;;;;;;;;19.41;100.00;99029.72;4970623;28;20033;-76
2023/06/14 03:24:36;;;;;;;;;;;;;;;19.43;100.00;99043.72;4969788;28;20039;-74
2023/06/14 03:27:05;;;;;;;;;;;;;;;19.42;100.00;99036.72;4969584;28;19918;-76
2023/06/14 03:29:31;;;;;;;;;;;;;;;19.43;100.00;99043.72;4954901;28;19949;-78
2023/06/14 03:31:58;;;;;;;;;;;;;;;19.43;100.00;99028.50;4995452;23;19921;-75
2023/06/14 03:34:24;;;;;;;;;;;;;;;19.42;100.00;99039.41;4969277;28;19924;-75
2023/06/14 03:36:49;;;;;;;;;;;;;;;19.41;100.00;99025.19;4985217;28;19917;-74
2023/06/14 03:39:15;;;;;;;;;;;;;;;19.40;100.00;99028.06;4986195;28;19925;-74
2023/06/14 03:41:40;;;;;;;;;;;;;;;19.41;100.00;99021.69;4980226;28;20020;-75
2023/06/14 03:44:06;;;;;;;;;;;;;;;19.41;100.00;99027.88;4987153;28;19948;-73
2023/06/14 03:46:31;;;;;;;;;;;;;;;19.43;100.00;99023.13;4982545;28;19918;-74
2023/06/14 03:48:57;;;;;;;;;;;;;;;19.45;100.00;99026.44;4990754;28;19924;-74
2023/06/14 03:51:22;;;;;;;;;;;;;;;19.45;100.00;99034.47;4984327;28;19964;-74
2023/06/14 03:53:48;;;;;;;;;;;;;;;19.42;100.00;99034.03;4985839;28;19921;-75
2023/06/14 03:56:13;;;;;;;;;;;;;;;19.39;100.00;99042.47;4980471;28;19925;-75
2023/06/14 03:58:42;;;;;;;;;;;;;;;19.38;100.00;99046.22;4982092;28;20000;-75
2023/06/14 04:01:07;;;;;;;;;;;;;;;19.39;100.00;99050.50;4983404;28;20056;-75
2023/06/14 04:03:33;;;;;;;;;;;;;;;19.39;100.00;99053.19;4985845;28;19947;-75
2023/06/14 04:06:00;;;;;;;;;;;;;;;19.40;100.00;99047.63;4983015;28;19918;-74
2023/06/14 04:08:26;;;;;;;;;;;;;;;19.40;100.00;99049.47;4964914;28;19925;-74
2023/06/14 04:10:51;;;;;;;;;;;;;;;19.38;100.00;99048.88;4989040;28;20361;-73
2023/06/14 04:13:17;;;;;;;;;;;;;;;19.38;100.00;99046.22;4986562;28;20408;-74
2023/06/14 04:15:43;;;;;;;;;;;;;;;19.34;100.00;99051.16;4968046;28;20373;-75
2023/06/14 04:18:12;;;;;;;;;;;;;;;19.36;100.00;99054.44;4966113;28;19918;-75
2023/06/14 04:20:39;;;;;;;;;;;;;;;19.34;100.00;99061.03;4984841;28;19928;-75
2023/06/14 04:23:21;;;;;;;;;;;;;;;19.35;100.00;99057.31;4982959;28;19924;-76
2023/06/14 04:25:49;;;;;;;;;;;;;;;19.31;100.00;99061.47;4983067;28;20011;-76
2023/06/14 04:28:15;;;;;;;;;;;;;;;19.31;100.00;99066.81;4982368;28;20373;-75
2023/06/14 04:30:42;;;;;;;;;;;;;;;19.30;100.00;99060.63;4966225;28;21125;-75
2023/06/14 04:33:09;;;;;;;;;;;;;;;19.31;100.00;99064.97;4966319;28;19972;-75
2023/06/14 04:35:37;;;;;;;;;;;;;;;19.33;100.00;99067.41;4960648;28;19997;-75
2023/06/14 04:38:04;;;;;;;;;;;;;;;19.34;100.00;99064.53;4982270;28;20258;-74
2023/06/14 04:40:31;;;;;;;;;;;;;;;19.35;100.00;99068.03;4984623;28;20288;-74
2023/06/14 04:42:57;;;;;;;;;;;;;;;19.37;100.00;99074.00;4982383;28;20400;-75
2023/06/14 04:45:23;;;;;;;;;;;;;;;19.30;100.00;99071.34;4968218;28;20645;-76
2023/06/14 04:47:51;;;;;;;;;;;;;;;19.35;100.00;99068.84;4981192;28;20238;-76
2023/06/14 04:50:18;;;;;;;;;;;;;;;19.38;100.00;99081.00;4960876;28;19976;-76
2023/06/14 04:52:43;;;;;;;;;;;;;;;19.40;100.00;99081.59;4984475;28;19918;-76
2023/06/14 04:55:10;;;;;;;;;;;;;;;19.43;100.00;99075.81;4985405;28;19918;-77
2023/06/14 04:57:35;;;;;;;;;;;;;;;19.46;100.00;99083.44;4984244;28;19918;-76
2023/06/14 05:00:04;;;;;;;;;;;;;;;19.46;100.00;99083.44;4983273;28;20323;-76
2023/06/14 05:02:30;;;;;;;;;;;;;;;19.47;100.00;99088.59;4983968;28;20386;-76
2023/06/14 05:04:57;;;;;;;;;;;;;;;19.44;100.00;99085.50;4990084;28;20004;-77
2023/06/14 05:07:23;;;;;;;;;;;;;;;19.44;100.00;99088.19;4982210;28;19918;-77
2023/06/14 05:09:50;;;;;;;;;;;;;;;19.44;100.00;99082.81;4969604;28;19917;-78
2023/06/14 05:12:18;;;;;;;;;;;;;;;19.43;100.00;99086.53;4980939;28;20017;-77
2023/06/14 05:14:44;;;;;;;;;;;;;;;19.46;100.00;99088.81;4967838;28;19917;-78
2023/06/14 05:17:10;;;;;;;;;;;;;;;19.48;100.00;99089.41;4966864;28;19976;-77
2023/06/14 05:19:35;;;;;;;;;;;;;;;19.46;100.00;99086.94;4983146;28;19961;-78
2023/06/14 05:22:02;;;;;;;;;;;;;;;19.54;100.00;99091.25;4979509;28;20021;-74
2023/06/14 05:24:30;;;;;;;;;;;;;;;19.53;100.00;99095.78;4985974;28;20075;-76
2023/06/14 05:26:56;;;;;;;;;;;;;;;19.55;100.00;99096.41;4983919;28;20432;-75
2023/06/14 05:29:21;;;;;;;;;;;;;;;19.60;100.00;99098.44;4987108;28;19957;-76
2023/06/14 05:31:47;;;;;;;;;;;;;;;19.62;100.00;99097.19;4982965;28;19954;-74
2023/06/14 05:34:12;;;;;;;;;;;;;;;19.68;100.00;99090.16;4985738;28;19928;-77
2023/06/14 05:36:38;;;;;;;;;;;;;;;19.72;100.00;99083.34;4983718;28;19962;-75
2023/06/14 05:39:05;;;;;;;;;;;;;;;19.76;100.00;99087.25;4986958;28;19976;-76
2023/06/14 05:41:34;;;;;;;;;;;;;;;19.78;100.00;99089.72;4983763;28;20017;-77
2023/06/14 05:44:00;;;;;;;;;;;;;;;19.78;100.00;99098.56;4985560;28;19917;-75
2023/06/14 05:46:26;;;;;;;;;;;;;;;19.80;100.00;99096.47;4983230;28;20293;-78
2023/06/14 05:48:51;;;;;;;;;;;;;;;19.82;100.00;99096.28;4986962;28;19926;-76
2023/06/14 05:51:19;;;;;;;;;;;;;;;19.82;100.00;99104.31;4988737;28;19918;-76
2023/06/14 05:53:45;;;;;;;;;;;;;;;19.83;100.00;99098.75;4987050;28;19918;-78
2023/06/14 05:56:10;;;;;;;;;;;;;;;19.85;100.00;99102.00;4986952;28;19918;-77
2023/06/14 05:58:36;;;;;;;;;;;;;;;19.87;100.00;99105.31;4990649;28;19921;-76
2023/06/14 06:01:01;;;;;;;;;;;;;;;19.86;100.00;99103.66;4986952;28;19918;-76
2023/06/14 06:03:29;;;;;;;;;;;;;;;19.84;100.00;99116.47;4982740;28;19914;-78
2023/06/14 06:05:54;;;;;;;;;;;;;;;19.82;100.00;99107.81;4989244;28;19976;-77
2023/06/14 06:08:20;;;;;;;;;;;;;;;19.84;100.00;99112.97;4987430;28;19925;-77
2023/06/14 06:10:46;;;;;;;;;;;;;;;19.84;100.00;99111.09;4985234;28;19913;-77
2023/06/14 06:13:11;;;;;;;;;;;;;;;19.84;100.00;99116.47;4980319;28;20317;-76
2023/06/14 06:15:36;;;;;;;;;;;;;;;19.89;100.00;99121.19;4989520;28;19940;-76
2023/06/14 06:18:02;;;;;;;;;;;;;;;19.88;100.00;99123.03;4989352;28;19918;-77
2023/06/14 06:20:28;;;;;;;;;;;;;;;19.89;100.00;99124.69;4984774;28;19917;-77
2023/06/14 06:22:54;;;;;;;;;;;;;;;19.88;100.00;99127.56;4987725;28;19971;-76
2023/06/14 06:25:19;;;;;;;;;;;;;;;19.87;100.00;99134.75;4988179;28;19925;-77
2023/06/14 06:27:45;;;;;;;;;;;;;;;19.83;100.00;99128.19;4985645;28;19919;-77
2023/06/14 06:30:10;;;;;;;;;;;;;;;19.80;100.00;99133.97;4986299;28;19925;-77
2023/06/14 06:32:36;;;;;;;;;;;;;;;19.82;100.00;99145.28;4964474;28;20409;-77
2023/06/14 06:35:01;;;;;;;;;;;;;;;19.84;100.00;99147.78;4985569;28;19971;-77
2023/06/14 06:37:26;;;;;;;;;;;;;;;19.81;100.00;99145.50;4983584;28;19925;-77
2023/06/14 06:39:52;;;;;;;;;;;;;;;19.78;100.00;99144.09;4984769;28;19925;-77
2023/06/14 06:42:17;;;;;;;;;;;;;;;19.80;100.00;99142.00;4984769;28;19914;-77
2023/06/14 06:44:42;;;;;;;;;;;;;;;19.82;100.00;99145.28;4985297;28;19917;-77
2023/06/14 06:47:09;;;;;;;;;;;;;;;19.79;100.00;99145.69;4980651;28;20012;-76
2023/06/14 06:49:35;;;;;;;;;;;;;;;19.79;100.00;99151.06;4985106;28;19914;-76
2023/06/14 06:52:04;;;;;;;;;;;;;;;19.78;100.00;99154.78;4982863;28;19918;-78
2023/06/14 06:54:30;;;;;;;;;;;;;;;19.78;100.00;99153.97;4984721;28;19922;-77
2023/06/14 06:56:55;;;;;;;;;;;;;;;19.77;100.00;99158.50;4983562;28;19924;-77
2023/06/14 06:59:21;;;;;;;;;;;;;;;19.78;100.00;99159.31;4986087;28;20720;-78
2023/06/14 07:01:46;;;;;;;;;;;;;;;19.79;100.00;99160.97;4982298;28;19965;-78
2023/06/14 07:04:12;;;;;;;;;;;;;;;19.79;100.00;99167.13;4984454;28;20005;-77
2023/06/14 07:06:37;;;;;;;;;;;;;;;19.83;100.00;99163.00;4982321;28;19918;-76
2023/06/14 07:09:07;;;;;;;;;;;;;;;19.84;100.00;99164.66;4984242;28;19917;-76
2023/06/14 07:11:33;;;;;;;;;;;;;;;19.88;100.00;99165.03;4981786;28;19918;-73
2023/06/14 07:13:58;;;;;;;;;;;;;;;19.90;100.00;99169.16;4984054;28;19932;-75
2023/06/14 07:16:24;;;;;;;;;;;;;;;19.91;100.00;99170.78;4966164;28;19928;-76
2023/06/14 07:18:49;;;;;;;;;;;;;;;19.95;100.00;99176.56;4980708;28;19956;-76
2023/06/14 07:21:14;;;;;;;;;;;;;;;19.93;100.00;99174.09;4983542;28;19918;-75
2023/06/14 07:23:39;;;;;;;;;;;;;;;19.94;100.00;99180.25;4982007;28;19989;-75
2023/06/14 07:26:05;;;;;;;;;;;;;;;19.96;100.00;99184.38;4987185;28;19999;-75
2023/06/14 07:28:30;;;;;;;;;;;;;;;19.88;100.00;99181.94;4986647;28;19930;-75
2023/06/14 07:30:56;;;;;;;;;;;;;;;19.86;100.00;99189.34;4982290;28;20009;-75
2023/06/14 07:33:21;;;;;;;;;;;;;;;19.77;100.00;99185.28;4983108;28;20105;-75
2023/06/14 07:35:47;;;;;;;;;;;;;;;19.78;100.00;99192.28;4982146;28;20441;-75
2023/06/14 07:38:13;;;;;;;;;;;;;;;19.82;100.00;99193.50;4979992;28;19925;-75
2023/06/14 07:40:38;;;;;;;;;;;;;;;19.86;100.00;99199.22;4981591;28;19921;-75
2023/06/14 07:43:04;;;;;;;;;;;;;;;19.84;100.00;99202.16;4981408;28;20008;-75
2023/06/14 07:45:29;;;;;;;;;;;;;;;19.84;100.00;99202.16;4982022;28;19921;-75
2023/06/14 07:47:55;;;;;;;;;;;;;;;19.84;100.00;99206.69;4983628;28;20057;-75
2023/06/14 07:50:20;;;;;;;;;;;;;;;19.87;100.00;99212.41;4982629;28;19972;-75
2023/06/14 07:52:46;;;;;;;;;;;;;;;19.94;100.00;99213.22;4981837;28;19918;-76
2023/06/14 07:55:12;;;;;;;;;;;;;;;20.02;100.00;99213.00;4981590;28;19972;-75
2023/06/14 07:57:37;;;;;;;;;;;;;;;20.04;100.00;99218.94;4984199;28;19945;-75
2023/06/14 08:00:06;;;;;;;;;;;;;;;20.07;100.00;99211.53;4983489;28;19918;-76
2023/06/14 08:02:37;;;;;;;;;;;;;;;20.13;100.00;99216.03;4972076;28;19925;-76
2023/06/14 08:05:02;;;;;;;;;;;;;;;20.20;100.00;99217.66;4985302;28;19918;-76
2023/06/14 08:07:28;;;;;;;;;;;;;;;20.27;100.00;99214.94;4986263;28;20004;-75
2023/06/14 08:09:53;;;;;;;;;;;;;;;20.31;100.00;99214.31;4984439;28;20068;-76
2023/06/14 08:12:19;;;;;;;;;;;;;;;20.35;100.00;99214.72;4981457;28;20512;-76
2023/06/14 08:14:44;;;;;;;;;;;;;;;20.38;100.00;99220.47;4983807;28;20381;-75
2023/06/14 08:17:10;;;;;;;;;;;;;;;20.40;100.00;99212.22;4968598;28;20440;-76
2023/06/14 08:19:35;;;;;;;;;;;;;;;20.48;100.00;99213.84;4987438;28;19918;-76
2023/06/14 08:22:01;;;;;;;;;;;;;;;20.51;100.00;99219.59;4984911;28;19924;-76
2023/06/14 08:24:29;;;;;;;;;;;;;;;20.51;100.00;99219.59;4986623;28;19918;-76
2023/06/14 08:26:56;;;;;;;;;;;;;;;20.54;100.00;99227.22;4982759;28;19925;-76
2023/06/14 08:29:21;;;;;;;;;;;;;;;20.53;100.00;99224.75;4982213;28;19964;-76
2023/06/14 08:31:47;;;;;;;;;;;;;;;20.52;100.00;99225.78;4985957;28;19918;-75
2023/06/14 08:34:12;;;;;;;;;;;;;;;20.52;100.00;99231.97;4987954;28;20019;-75
2023/06/14 08:36:37;;;;;;;;;;;;;;;20.53;100.00;99233.59;4984888;28;20247;-76
2023/06/14 08:39:03;;;;;;;;;;;;;;;20.55;100.00;99231.53;4983115;28;19918;-77
2023/06/14 08:41:29;;;;;;;;;;;;;;;20.55;100.00;99230.72;4987825;28;19933;-76
2023/06/14 08:43:55;;;;;;;;;;;;;;;20.61;100.00;99233.38;4981583;28;20000;-77
2023/06/14 08:46:21;;;;;;;;;;;;;;;20.67;100.00;99229.81;4986271;28;20324;-77
2023/06/14 08:48:48;;;;;;;;;;;;;;;20.73;100.00;99238.88;4987924;28;19925;-75
2023/06/14 08:51:21;;;;;;;;;;;;;;;20.77;100.00;99240.91;4985541;28;19958;-78
2023/06/14 08:53:51;;;;;;;;;;;;;;;20.78;100.00;99247.91;4983086;28;19972;-79
2023/06/14 08:56:17;;;;;;;;;;;;;;;20.84;100.00;99247.03;4965409;28;19918;-78
2023/06/14 08:58:45;;;;;;;;;;;;;;;20.89;100.00;99243.72;4984924;28;19976;-76
2023/06/14 09:01:16;;;;;;;;;;;;;;;20.98;100.00;99246.94;4983469;28;20278;-77
2023/06/14 09:03:42;;;;;;;;;;;;;;;20.99;100.00;99243.22;4980988;28;19922;-75
2023/06/14 09:06:13;;;;;;;;;;;;;;;21.07;100.00;99240.28;4981365;28;20706;-76
2023/06/14 09:08:40;;;;;;;;;;;;;;;21.07;100.00;99242.97;4982192;28;19918;-75
2023/06/14 09:11:05;;;;;;;;;;;;;;;21.08;100.00;99242.75;4979491;28;19948;-77
2023/06/14 09:13:31;;;;;;;;;;;;;;;21.03;100.00;99244.44;4980339;28;19930;-76
2023/06/14 09:15:56;;;;;;;;;;;;;;;21.10;100.00;99237.16;4982614;28;20016;-76
2023/06/14 09:18:21;;;;;;;;;;;;;;;21.18;100.00;99242.28;4981519;28;20301;-75
2023/06/14 09:20:48;;;;;;;;;;;;;;;21.22;100.00;99243.47;4981452;28;19918;-75
2023/06/14 09:23:13;;;;;;;;;;;;;;;21.27;100.00;99246.31;4982924;28;20311;-75
2023/06/14 09:25:43;;;;;;;;;;;;;;;21.29;100.00;99243.44;4985752;28;19944;-76
2023/06/14 09:28:09;;;;;;;;;;;;;;;21.32;100.00;99248.38;4985555;28;19929;-77
2023/06/14 09:30:35;;;;;;;;;;;;;;;21.32;100.00;99249.19;4983004;28;19918;-76
2023/06/14 09:33:01;;;;;;;;;;;;;;;21.32;100.00;99243.84;4983784;28;19918;-77
2023/06/14 09:35:29;;;;;;;;;;;;;;;21.31;100.00;99252.91;4985549;28;19925;-77
2023/06/14 09:37:55;;;;;;;;;;;;;;;21.28;100.00;99258.72;4984761;28;20005;-76
2023/06/14 09:40:21;;;;;;;;;;;;;;;21.31;100.00;99258.28;4983985;28;20009;-75
2023/06/14 09:42:47;;;;;;;;;;;;;;;21.39;100.00;99257.16;4985454;28;20421;-75
2023/06/14 09:45:13;;;;;;;;;;;;;;;21.43;100.00;99261.91;4983323;28;20018;-76
2023/06/14 09:47:39;;;;;;;;;;;;;;;21.51;100.00;99253.56;4985136;28;19928;-76
2023/06/14 09:50:04;;;;;;;;;;;;;;;21.58;100.00;99259.69;4988960;28;19914;-77
2023/06/14 09:52:30;;;;;;;;;;;;;;;21.55;100.00;99254.78;4986601;28;19933;-76
2023/06/14 09:54:58;;;;;;;;;;;;;;;21.66;100.00;99255.91;4990091;28;19917;-78
2023/06/14 09:57:25;;;;;;;;;;;;;;;21.78;100.00;99254.13;4985507;28;19914;-75
2023/06/14 10:00:00;;;;;;;;;;;;;;;21.89;100.00;99261.47;4990937;28;20333;-78
2023/06/14 10:02:38;;;;;;;;;;;;;;;22.02;100.00;99268.59;4985229;28;19945;-77
2023/06/14 10:05:08;;;;;;;;;;;;;;;21.95;100.00;99265.16;4991532;28;19918;-78
2023/06/14 10:08:01;;;;;;;;;;;;;;;22.01;100.00;99269.63;4985510;28;19922;-76
2023/06/14 10:10:26;;;;;;;;;;;;;;;22.07;100.00;99268.75;4986047;28;20021;-76
2023/06/14 10:12:52;;;;;;;;;;;;;;;22.01;100.00;99266.94;4985278;28;20005;-79
2023/06/14 10:15:23;;;;;;;;;;;;;;;21.98;100.00;99268.19;4989007;28;19960;-77
2023/06/14 10:17:52;;;;;;;;;;;;;;;22.02;100.00;99260.53;4993357;28;19952;-76
2023/06/14 10:20:30;;;;;;;;;;;;;;;22.06;100.00;99261.72;4992392;28;20004;-77
2023/06/14 10:23:07;;;;;;;;;;;;;;;22.12;100.00;99260.00;4988980;28;19917;-77
2023/06/14 10:25:33;;;;;;;;;;;;;;;22.17;100.00;99252.91;4978870;28;19957;-78
2023/06/14 10:28:16;;;;;;;;;;;;;;;22.20;100.00;99257.84;4988149;28;19969;-77
2023/06/14 10:31:01;;;;;;;;;;;;;;;22.16;100.00;99256.63;4984036;28;19925;-78
2023/06/14 10:33:26;;;;;;;;;;;;;;;22.16;100.00;99256.63;4983446;28;20374;-76
2023/06/14 10:36:06;;;;;;;;;;;;;;;22.18;100.00;99259.94;4983890;28;19925;-77
2023/06/14 10:38:33;;;;;;;;;;;;;;;22.19;100.00;99250.81;4988866;28;19925;-78
2023/06/14 10:40:58;;;;;;;;;;;;;;;22.30;100.00;99255.44;4992313;28;20445;-77
2023/06/14 10:43:24;;;;;;;;;;;;;;;22.27;100.00;99253.19;4988795;28;19920;-78
2023/06/14 10:46:08;;;;;;;;;;;;;;;22.28;100.00;99262.91;4990324;28;20012;-77
2023/06/14 10:48:39;;;;;;;;;;;;;;;22.27;100.00;99255.88;4984268;28;19975;-76
2023/06/14 10:51:05;;;;;;;;;;;;;;;22.31;100.00;99257.09;4986780;28;19921;-77
2023/06/14 10:53:39;;;;;;;;;;;;;;;22.39;100.00;99262.13;4989336;28;19928;-74
2023/06/14 10:56:24;;;;;;;;;;;;;;;22.43;100.00;99252.59;4989000;28;19940;-74
2023/06/14 10:59:02;;;;;;;;;;;;;;;22.41;100.00;99254.66;4990211;28;19917;-76
2023/06/14 11:01:33;;;;;;;;;;;;;;;22.45;100.00;99260.41;4972061;28;20301;-78
2023/06/14 11:04:06;;;;;;;;;;;;;;;22.51;100.00;99253.31;4990552;28;19926;-78
2023/06/14 11:06:41;;;;;;;;;;;;;;;22.56;100.00;99256.16;4983276;28;20459;-76
2023/06/14 11:09:27;;;;;;;;;;;;;;;22.60;100.00;99252.78;4985308;28;20266;-76
2023/06/14 11:11:53;;;;;;;;;;;;;;;22.65;100.00;99254.78;4987670;28;19925;-77
2023/06/14 11:14:19;;;;;;;;;;;;;;;22.64;100.00;99253.13;4984740;28;20318;-77
2023/06/14 11:16:51;;;;;;;;;;;;;;;22.73;100.00;99251.81;4988063;28;19917;-76
2023/06/14 11:19:17;;;;;;;;;;;;;;;22.76;100.00;99251.34;4986127;28;19941;-79
2023/06/14 11:21:42;;;;;;;;;;;;;;;22.79;100.00;99249.03;4988079;28;20309;-77
2023/06/14 11:24:11;;;;;;;;;;;;;;;22.82;100.00;99253.94;4985453;28;19922;-77
2023/06/14 11:26:37;;;;;;;;;;;;;;;22.83;100.00;99252.06;4985592;28;20000;-77
2023/06/14 11:29:03;;;;;;;;;;;;;;;22.77;100.00;99253.00;4986021;28;20286;-76
2023/06/14 11:31:28;;;;;;;;;;;;;;;22.97;100.00;99241.94;4986598;28;19956;-77
2023/06/14 11:33:56;;;;;;;;;;;;;;;23.11;100.00;99233.41;4986688;28;20024;-77
2023/06/14 11:36:22;;;;;;;;;;;;;;;23.16;100.00;99232.72;4986630;28;20425;-77
2023/06/14 11:38:47;;;;;;;;;;;;;;;23.30;100.00;99236.84;4987087;28;19992;-77
2023/06/14 11:41:12;;;;;;;;;;;;;;;23.27;100.00;99243.50;4981289;28;19918;-77
2023/06/14 11:43:39;;;;;;;;;;;;;;;23.28;100.00;99239.75;4982056;28;19921;-76
2023/06/14 11:46:05;;;;;;;;;;;;;;;23.25;100.00;99234.84;4983320;28;20424;-76
2023/06/14 11:48:40;;;;;;;;;;;;;;;23.27;100.00;99238.13;4983900;28;19922;-78
2023/06/14 11:51:05;;;;;;;;;;;;;;;23.20;100.00;99226.66;4988261;28;19918;-77
2023/06/14 11:53:31;;;;;;;;;;;;;;;23.27;100.00;99221.97;4985182;28;19922;-76
2023/06/14 11:55:57;;;;;;;;;;;;;;;23.35;100.00;99228.06;4987252;28;19918;-77
2023/06/14 11:58:22;;;;;;;;;;;;;;;23.42;100.00;99220.69;4984101;28;19925;-77
2023/06/14 12:00:51;;;;;;;;;;;;;;;23.43;100.00;99219.66;4986004;28;19921;-76
2023/06/14 12:03:17;;;;;;;;;;;;;;;23.46;100.00;99213.78;4983710;28;19918;-76
2023/06/14 12:05:43;;;;;;;;;;;;;;;23.48;100.00;99220.63;4987210;28;19924;-76
2023/06/14 12:08:09;;;;;;;;;;;;;;;23.52;100.00;99219.09;4985307;28;19961;-77
2023/06/14 12:10:43;;;;;;;;;;;;;;;23.50;100.00;99215.00;4970519;28;19953;-77
2023/06/14 12:13:08;;;;;;;;;;;;;;;23.50;100.00;99209.63;4984697;28;20031;-77
2023/06/14 12:15:34;;;;;;;;;;;;;;;23.50;100.00;99209.63;4984501;28;20382;-77
2023/06/14 12:17:59;;;;;;;;;;;;;;;23.56;100.00;99214.06;4983910;28;19968;-77
2023/06/14 12:20:29;;;;;;;;;;;;;;;23.59;100.00;99210.88;4986798;28;19918;-77
2023/06/14 12:22:56;;;;;;;;;;;;;;;23.66;100.00;99208.91;4983843;28;19922;-78
2023/06/14 12:25:26;;;;;;;;;;;;;;;23.82;100.00;99205.47;4987127;28;19918;-77
2023/06/14 12:27:52;;;;;;;;;;;;;;;23.97;100.00;99203.13;4978608;28;19918;-77
2023/06/14 12:30:18;;;;;;;;;;;;;;;24.08;100.00;99196.88;4986480;28;19917;-77
2023/06/14 12:32:45;;;;;;;;;;;;;;;24.15;100.00;99194.03;4983727;28;19965;-77
2023/06/14 12:35:10;;;;;;;;;;;;;;;24.22;100.00;99196.63;4969104;28;19918;-76